sensor_id;sensor_type;location;lat;lon;timestamp;P1;durP1;ratioP1;P2;durP2;ratioP2
2021;SDS011;1015;49.756;6.994;2022-07-09T00:01:19;8.50;;;6.73;;
2021;SDS011;1015;49.756;6.994;2022-07-09T00:03:46;8.30;;;7.50;;
2021;SDS011;1015;49.756;6.994;2022-07-09T00:06:13;8.60;;;7.40;;
2021;SDS011;1015;49.756;6.994;2022-07-09T00:08:40;9.23;;;8.20;;
2021;SDS011;1015;49.756;6.994;2022-07-09T00:11:06;9.80;;;7.70;;
2021;SDS011;1015;49.756;6.994;2022-07-09T00:13:33;8.80;;;7.63;;
2021;SDS011;1015;49.756;6.994;2022-07-09T00:16:02;8.33;;;7.53;;
2021;SDS011;1015;49.756;6.994;2022-07-09T00:18:29;9.23;;;8.10;;
2021;SDS011;1015;49.756;6.994;2022-07-09T00:20:56;9.77;;;8.17;;
2021;SDS011;1015;49.756;6.994;2022-07-09T00:23:23;9.67;;;7.87;;
2021;SDS011;1015;49.756;6.994;2022-07-09T00:25:50;10.80;;;8.67;;
2021;SDS011;1015;49.756;6.994;2022-07-09T00:28:18;10.17;;;9.20;;
2021;SDS011;1015;49.756;6.994;2022-07-09T00:30:45;9.87;;;8.87;;
2021;SDS011;1015;49.756;6.994;2022-07-09T00:33:13;12.53;;;9.47;;
2021;SDS011;1015;49.756;6.994;2022-07-09T00:35:40;10.00;;;9.10;;
2021;SDS011;1015;49.756;6.994;2022-07-09T00:38:07;10.20;;;9.10;;
2021;SDS011;1015;49.756;6.994;2022-07-09T00:40:34;10.43;;;9.47;;
2021;SDS011;1015;49.756;6.994;2022-07-09T00:43:01;10.30;;;9.40;;
2021;SDS011;1015;49.756;6.994;2022-07-09T00:45:28;9.50;;;8.60;;
2021;SDS011;1015;49.756;6.994;2022-07-09T00:47:55;11.70;;;10.13;;
2021;SDS011;1015;49.756;6.994;2022-07-09T00:50:23;11.07;;;9.90;;
2021;SDS011;1015;49.756;6.994;2022-07-09T00:52:50;11.20;;;10.20;;
2021;SDS011;1015;49.756;6.994;2022-07-09T00:55:17;11.63;;;9.50;;
2021;SDS011;1015;49.756;6.994;2022-07-09T00:57:44;9.70;;;8.77;;
2021;SDS011;1015;49.756;6.994;2022-07-09T01:00:12;8.33;;;7.53;;
2021;SDS011;1015;49.756;6.994;2022-07-09T01:02:39;9.93;;;8.93;;
2021;SDS011;1015;49.756;6.994;2022-07-09T01:05:07;12.10;;;10.20;;
2021;SDS011;1015;49.756;6.994;2022-07-09T01:07:36;11.30;;;10.17;;
2021;SDS011;1015;49.756;6.994;2022-07-09T01:10:03;10.00;;;9.10;;
2021;SDS011;1015;49.756;6.994;2022-07-09T01:12:30;13.00;;;10.27;;
2021;SDS011;1015;49.756;6.994;2022-07-09T01:14:58;14.10;;;9.83;;
2021;SDS011;1015;49.756;6.994;2022-07-09T01:17:25;9.90;;;8.90;;
2021;SDS011;1015;49.756;6.994;2022-07-09T01:19:52;10.37;;;9.27;;
2021;SDS011;1015;49.756;6.994;2022-07-09T01:22:20;9.63;;;8.07;;
2021;SDS011;1015;49.756;6.994;2022-07-09T01:24:47;9.90;;;8.40;;
2021;SDS011;1015;49.756;6.994;2022-07-09T01:27:16;10.70;;;8.70;;
2021;SDS011;1015;49.756;6.994;2022-07-09T01:29:43;12.13;;;9.00;;
2021;SDS011;1015;49.756;6.994;2022-07-09T01:32:14;9.40;;;8.50;;
2021;SDS011;1015;49.756;6.994;2022-07-09T01:34:41;10.00;;;8.53;;
2021;SDS011;1015;49.756;6.994;2022-07-09T01:37:09;10.13;;;9.20;;
2021;SDS011;1015;49.756;6.994;2022-07-09T01:39:37;11.53;;;10.27;;
2021;SDS011;1015;49.756;6.994;2022-07-09T01:42:15;9.90;;;8.80;;
2021;SDS011;1015;49.756;6.994;2022-07-09T01:44:42;10.17;;;9.17;;
2021;SDS011;1015;49.756;6.994;2022-07-09T01:47:09;9.90;;;8.13;;
2021;SDS011;1015;49.756;6.994;2022-07-09T01:49:36;11.33;;;8.33;;
2021;SDS011;1015;49.756;6.994;2022-07-09T01:52:04;9.77;;;7.83;;
2021;SDS011;1015;49.756;6.994;2022-07-09T01:54:31;8.73;;;7.93;;
2021;SDS011;1015;49.756;6.994;2022-07-09T01:57:00;11.90;;;8.60;;
2021;SDS011;1015;49.756;6.994;2022-07-09T01:59:27;10.40;;;9.40;;
2021;SDS011;1015;49.756;6.994;2022-07-09T02:01:54;10.20;;;8.23;;
2021;SDS011;1015;49.756;6.994;2022-07-09T02:04:20;12.47;;;9.53;;
2021;SDS011;1015;49.756;6.994;2022-07-09T02:06:47;12.63;;;11.33;;
2021;SDS011;1015;49.756;6.994;2022-07-09T02:09:14;12.20;;;10.43;;
2021;SDS011;1015;49.756;6.994;2022-07-09T02:11:42;12.80;;;11.60;;
2021;SDS011;1015;49.756;6.994;2022-07-09T02:14:10;12.63;;;10.97;;
2021;SDS011;1015;49.756;6.994;2022-07-09T02:16:37;15.10;;;12.80;;
2021;SDS011;1015;49.756;6.994;2022-07-09T02:19:04;12.83;;;11.60;;
2021;SDS011;1015;49.756;6.994;2022-07-09T02:21:32;11.97;;;10.77;;
2021;SDS011;1015;49.756;6.994;2022-07-09T02:23:59;11.00;;;9.90;;
2021;SDS011;1015;49.756;6.994;2022-07-09T02:26:26;11.97;;;10.40;;
2021;SDS011;1015;49.756;6.994;2022-07-09T02:28:54;14.17;;;10.87;;
2021;SDS011;1015;49.756;6.994;2022-07-09T02:31:22;13.70;;;11.33;;
2021;SDS011;1015;49.756;6.994;2022-07-09T02:33:49;13.20;;;11.87;;
2021;SDS011;1015;49.756;6.994;2022-07-09T02:36:16;13.60;;;11.73;;
2021;SDS011;1015;49.756;6.994;2022-07-09T02:38:43;13.83;;;12.33;;
2021;SDS011;1015;49.756;6.994;2022-07-09T02:41:10;14.13;;;12.70;;
2021;SDS011;1015;49.756;6.994;2022-07-09T02:43:37;13.17;;;11.77;;
2021;SDS011;1015;49.756;6.994;2022-07-09T02:46:07;13.60;;;11.70;;
2021;SDS011;1015;49.756;6.994;2022-07-09T02:48:36;11.90;;;10.70;;
2021;SDS011;1015;49.756;6.994;2022-07-09T02:51:03;10.60;;;9.50;;
2021;SDS011;1015;49.756;6.994;2022-07-09T02:53:30;12.83;;;10.53;;
2021;SDS011;1015;49.756;6.994;2022-07-09T02:55:57;9.60;;;8.60;;
2021;SDS011;1015;49.756;6.994;2022-07-09T02:58:24;16.43;;;11.93;;
2021;SDS011;1015;49.756;6.994;2022-07-09T03:00:51;12.73;;;10.90;;
2021;SDS011;1015;49.756;6.994;2022-07-09T03:03:18;11.43;;;10.23;;
2021;SDS011;1015;49.756;6.994;2022-07-09T03:05:46;11.20;;;10.10;;
2021;SDS011;1015;49.756;6.994;2022-07-09T03:08:13;13.63;;;11.57;;
2021;SDS011;1015;49.756;6.994;2022-07-09T03:10:40;13.93;;;9.90;;
2021;SDS011;1015;49.756;6.994;2022-07-09T03:13:07;12.97;;;9.97;;
2021;SDS011;1015;49.756;6.994;2022-07-09T03:15:34;11.60;;;10.40;;
2021;SDS011;1015;49.756;6.994;2022-07-09T03:18:01;14.63;;;10.90;;
2021;SDS011;1015;49.756;6.994;2022-07-09T03:20:28;13.00;;;11.60;;
2021;SDS011;1015;49.756;6.994;2022-07-09T03:22:56;13.43;;;12.00;;
2021;SDS011;1015;49.756;6.994;2022-07-09T03:25:23;14.67;;;12.90;;
2021;SDS011;1015;49.756;6.994;2022-07-09T03:27:50;13.50;;;11.50;;
2021;SDS011;1015;49.756;6.994;2022-07-09T03:30:17;13.17;;;11.73;;
2021;SDS011;1015;49.756;6.994;2022-07-09T03:32:45;14.20;;;11.37;;
2021;SDS011;1015;49.756;6.994;2022-07-09T03:35:12;15.20;;;12.40;;
2021;SDS011;1015;49.756;6.994;2022-07-09T03:37:38;14.77;;;11.87;;
2021;SDS011;1015;49.756;6.994;2022-07-09T03:40:08;12.33;;;11.03;;
2021;SDS011;1015;49.756;6.994;2022-07-09T03:42:35;14.10;;;12.53;;
2021;SDS011;1015;49.756;6.994;2022-07-09T03:45:02;15.70;;;12.10;;
2021;SDS011;1015;49.756;6.994;2022-07-09T03:47:29;18.50;;;14.70;;
2021;SDS011;1015;49.756;6.994;2022-07-09T03:49:58;17.57;;;14.20;;
2021;SDS011;1015;49.756;6.994;2022-07-09T03:52:25;14.80;;;13.30;;
2021;SDS011;1015;49.756;6.994;2022-07-09T03:54:52;14.33;;;12.90;;
2021;SDS011;1015;49.756;6.994;2022-07-09T03:57:20;21.27;;;15.07;;
2021;SDS011;1015;49.756;6.994;2022-07-09T03:59:47;14.93;;;13.50;;
2021;SDS011;1015;49.756;6.994;2022-07-09T04:02:14;15.57;;;13.87;;
2021;SDS011;1015;49.756;6.994;2022-07-09T04:04:41;15.80;;;13.90;;
2021;SDS011;1015;49.756;6.994;2022-07-09T04:07:09;17.70;;;15.83;;
2021;SDS011;1015;49.756;6.994;2022-07-09T04:09:36;16.50;;;14.80;;
2021;SDS011;1015;49.756;6.994;2022-07-09T04:12:03;18.20;;;15.87;;
2021;SDS011;1015;49.756;6.994;2022-07-09T04:14:31;18.00;;;15.87;;
2021;SDS011;1015;49.756;6.994;2022-07-09T04:16:58;17.30;;;15.60;;
2021;SDS011;1015;49.756;6.994;2022-07-09T04:19:25;18.57;;;16.70;;
2021;SDS011;1015;49.756;6.994;2022-07-09T04:21:52;16.20;;;14.63;;
2021;SDS011;1015;49.756;6.994;2022-07-09T04:24:19;15.90;;;14.50;;
2021;SDS011;1015;49.756;6.994;2022-07-09T04:26:46;15.60;;;13.77;;
2021;SDS011;1015;49.756;6.994;2022-07-09T04:29:13;13.23;;;11.93;;
2021;SDS011;1015;49.756;6.994;2022-07-09T04:31:41;12.37;;;11.10;;
2021;SDS011;1015;49.756;6.994;2022-07-09T04:34:08;11.50;;;10.50;;
2021;SDS011;1015;49.756;6.994;2022-07-09T04:36:35;11.40;;;10.30;;
2021;SDS011;1015;49.756;6.994;2022-07-09T04:39:02;9.77;;;8.93;;
2021;SDS011;1015;49.756;6.994;2022-07-09T04:41:29;9.07;;;8.27;;
2021;SDS011;1015;49.756;6.994;2022-07-09T04:43:56;8.83;;;8.13;;
2021;SDS011;1015;49.756;6.994;2022-07-09T04:46:23;6.67;;;6.17;;
2021;SDS011;1015;49.756;6.994;2022-07-09T04:48:53;6.30;;;5.80;;
2021;SDS011;1015;49.756;6.994;2022-07-09T04:51:20;5.00;;;4.50;;
2021;SDS011;1015;49.756;6.994;2022-07-09T04:53:47;6.10;;;4.40;;
2021;SDS011;1015;49.756;6.994;2022-07-09T04:56:14;5.40;;;5.00;;
2021;SDS011;1015;49.756;6.994;2022-07-09T04:58:41;3.97;;;3.77;;
2021;SDS011;1015;49.756;6.994;2022-07-09T05:01:16;5.47;;;4.50;;
2021;SDS011;1015;49.756;6.994;2022-07-09T05:03:43;4.03;;;3.73;;
2021;SDS011;1015;49.756;6.994;2022-07-09T05:06:13;4.73;;;4.07;;
2021;SDS011;1015;49.756;6.994;2022-07-09T05:08:40;6.00;;;4.40;;
2021;SDS011;1015;49.756;6.994;2022-07-09T05:11:07;5.63;;;5.13;;
2021;SDS011;1015;49.756;6.994;2022-07-09T05:13:35;4.53;;;4.13;;
2021;SDS011;1015;49.756;6.994;2022-07-09T05:16:02;4.90;;;4.60;;
2021;SDS011;1015;49.756;6.994;2022-07-09T05:18:30;5.03;;;4.67;;
2021;SDS011;1015;49.756;6.994;2022-07-09T05:20:57;5.20;;;4.73;;
2021;SDS011;1015;49.756;6.994;2022-07-09T05:23:25;5.10;;;4.70;;
2021;SDS011;1015;49.756;6.994;2022-07-09T05:25:52;4.97;;;4.67;;
2021;SDS011;1015;49.756;6.994;2022-07-09T05:28:19;4.60;;;4.30;;
2021;SDS011;1015;49.756;6.994;2022-07-09T05:30:46;4.73;;;4.43;;
2021;SDS011;1015;49.756;6.994;2022-07-09T05:33:13;4.53;;;4.23;;
2021;SDS011;1015;49.756;6.994;2022-07-09T05:35:40;7.80;;;4.67;;
2021;SDS011;1015;49.756;6.994;2022-07-09T05:38:07;5.30;;;4.93;;
2021;SDS011;1015;49.756;6.994;2022-07-09T05:40:35;4.20;;;3.90;;
2021;SDS011;1015;49.756;6.994;2022-07-09T05:43:02;3.70;;;3.50;;
2021;SDS011;1015;49.756;6.994;2022-07-09T05:45:29;4.00;;;3.80;;
2021;SDS011;1015;49.756;6.994;2022-07-09T05:47:56;4.03;;;3.57;;
2021;SDS011;1015;49.756;6.994;2022-07-09T05:50:23;4.33;;;3.93;;
2021;SDS011;1015;49.756;6.994;2022-07-09T05:52:50;4.17;;;3.87;;
2021;SDS011;1015;49.756;6.994;2022-07-09T05:55:17;3.97;;;3.67;;
2021;SDS011;1015;49.756;6.994;2022-07-09T05:57:46;3.77;;;3.33;;
2021;SDS011;1015;49.756;6.994;2022-07-09T06:00:13;3.73;;;3.53;;
2021;SDS011;1015;49.756;6.994;2022-07-09T06:02:40;3.97;;;3.40;;
2021;SDS011;1015;49.756;6.994;2022-07-09T06:05:07;4.07;;;3.77;;
2021;SDS011;1015;49.756;6.994;2022-07-09T06:07:34;3.70;;;3.40;;
2021;SDS011;1015;49.756;6.994;2022-07-09T06:10:01;4.20;;;3.80;;
2021;SDS011;1015;49.756;6.994;2022-07-09T06:12:28;5.50;;;4.00;;
2021;SDS011;1015;49.756;6.994;2022-07-09T06:14:57;4.10;;;3.87;;
2021;SDS011;1015;49.756;6.994;2022-07-09T06:17:24;4.03;;;3.70;;
2021;SDS011;1015;49.756;6.994;2022-07-09T06:19:51;3.70;;;3.40;;
2021;SDS011;1015;49.756;6.994;2022-07-09T06:22:18;3.60;;;3.30;;
2021;SDS011;1015;49.756;6.994;2022-07-09T06:24:44;3.53;;;3.27;;
2021;SDS011;1015;49.756;6.994;2022-07-09T06:27:11;6.67;;;3.40;;
2021;SDS011;1015;49.756;6.994;2022-07-09T06:29:38;4.13;;;3.40;;
2021;SDS011;1015;49.756;6.994;2022-07-09T06:32:07;3.00;;;2.70;;
2021;SDS011;1015;49.756;6.994;2022-07-09T06:34:35;4.50;;;3.33;;
2021;SDS011;1015;49.756;6.994;2022-07-09T06:37:02;3.53;;;3.23;;
2021;SDS011;1015;49.756;6.994;2022-07-09T06:39:29;3.50;;;3.00;;
2021;SDS011;1015;49.756;6.994;2022-07-09T06:42:11;4.43;;;2.93;;
2021;SDS011;1015;49.756;6.994;2022-07-09T06:44:38;3.37;;;3.07;;
2021;SDS011;1015;49.756;6.994;2022-07-09T06:47:07;4.30;;;2.90;;
2021;SDS011;1015;49.756;6.994;2022-07-09T06:49:34;4.50;;;2.97;;
2021;SDS011;1015;49.756;6.994;2022-07-09T06:52:01;3.43;;;3.13;;
2021;SDS011;1015;49.756;6.994;2022-07-09T06:54:28;6.70;;;3.40;;
2021;SDS011;1015;49.756;6.994;2022-07-09T06:56:55;4.73;;;4.00;;
2021;SDS011;1015;49.756;6.994;2022-07-09T06:59:22;3.87;;;3.57;;
2021;SDS011;1015;49.756;6.994;2022-07-09T07:01:49;5.40;;;4.03;;
2021;SDS011;1015;49.756;6.994;2022-07-09T07:04:18;5.03;;;4.53;;
2021;SDS011;1015;49.756;6.994;2022-07-09T07:06:45;5.73;;;4.73;;
2021;SDS011;1015;49.756;6.994;2022-07-09T07:09:13;4.67;;;3.30;;
2021;SDS011;1015;49.756;6.994;2022-07-09T07:11:42;4.73;;;3.53;;
2021;SDS011;1015;49.756;6.994;2022-07-09T07:14:08;4.40;;;4.00;;
2021;SDS011;1015;49.756;6.994;2022-07-09T07:16:35;5.23;;;4.57;;
2021;SDS011;1015;49.756;6.994;2022-07-09T07:19:02;5.10;;;4.70;;
2021;SDS011;1015;49.756;6.994;2022-07-09T07:21:31;4.60;;;4.20;;
2021;SDS011;1015;49.756;6.994;2022-07-09T07:23:57;4.33;;;4.03;;
2021;SDS011;1015;49.756;6.994;2022-07-09T07:26:25;6.60;;;4.40;;
2021;SDS011;1015;49.756;6.994;2022-07-09T07:28:52;4.97;;;4.57;;
2021;SDS011;1015;49.756;6.994;2022-07-09T07:31:19;9.10;;;4.33;;
2021;SDS011;1015;49.756;6.994;2022-07-09T07:33:47;4.70;;;4.30;;
2021;SDS011;1015;49.756;6.994;2022-07-09T07:36:14;4.90;;;4.47;;
2021;SDS011;1015;49.756;6.994;2022-07-09T07:38:43;4.83;;;4.33;;
2021;SDS011;1015;49.756;6.994;2022-07-09T07:41:11;5.63;;;4.20;;
2021;SDS011;1015;49.756;6.994;2022-07-09T07:43:38;4.83;;;4.33;;
2021;SDS011;1015;49.756;6.994;2022-07-09T07:46:05;4.20;;;3.80;;
2021;SDS011;1015;49.756;6.994;2022-07-09T07:48:32;3.83;;;3.47;;
2021;SDS011;1015;49.756;6.994;2022-07-09T07:51:01;6.90;;;4.07;;
2021;SDS011;1015;49.756;6.994;2022-07-09T07:53:29;3.83;;;3.43;;
2021;SDS011;1015;49.756;6.994;2022-07-09T07:55:59;6.17;;;3.97;;
2021;SDS011;1015;49.756;6.994;2022-07-09T07:58:26;4.30;;;3.37;;
2021;SDS011;1015;49.756;6.994;2022-07-09T08:00:54;5.23;;;4.70;;
2021;SDS011;1015;49.756;6.994;2022-07-09T08:03:21;5.33;;;4.83;;
2021;SDS011;1015;49.756;6.994;2022-07-09T08:05:48;4.70;;;4.30;;
2021;SDS011;1015;49.756;6.994;2022-07-09T08:08:15;4.70;;;3.60;;
2021;SDS011;1015;49.756;6.994;2022-07-09T08:10:43;4.50;;;4.10;;
2021;SDS011;1015;49.756;6.994;2022-07-09T08:13:12;5.90;;;3.77;;
2021;SDS011;1015;49.756;6.994;2022-07-09T08:15:39;3.40;;;3.20;;
2021;SDS011;1015;49.756;6.994;2022-07-09T08:18:06;3.90;;;3.47;;
2021;SDS011;1015;49.756;6.994;2022-07-09T08:20:37;4.10;;;3.80;;
2021;SDS011;1015;49.756;6.994;2022-07-09T08:23:05;2.60;;;2.40;;
2021;SDS011;1015;49.756;6.994;2022-07-09T08:25:32;4.10;;;3.70;;
2021;SDS011;1015;49.756;6.994;2022-07-09T08:27:59;5.03;;;4.20;;
2021;SDS011;1015;49.756;6.994;2022-07-09T08:30:28;4.03;;;3.53;;
2021;SDS011;1015;49.756;6.994;2022-07-09T08:32:55;4.17;;;3.73;;
2021;SDS011;1015;49.756;6.994;2022-07-09T08:35:22;8.50;;;4.10;;
2021;SDS011;1015;49.756;6.994;2022-07-09T08:37:51;4.37;;;3.43;;
2021;SDS011;1015;49.756;6.994;2022-07-09T08:40:18;5.10;;;4.00;;
2021;SDS011;1015;49.756;6.994;2022-07-09T08:42:47;4.37;;;3.97;;
2021;SDS011;1015;49.756;6.994;2022-07-09T08:45:14;6.23;;;3.30;;
2021;SDS011;1015;49.756;6.994;2022-07-09T08:47:45;2.90;;;2.70;;
2021;SDS011;1015;49.756;6.994;2022-07-09T08:50:13;4.43;;;3.10;;
2021;SDS011;1015;49.756;6.994;2022-07-09T08:52:40;3.87;;;3.03;;
2021;SDS011;1015;49.756;6.994;2022-07-09T08:55:08;3.83;;;3.43;;
2021;SDS011;1015;49.756;6.994;2022-07-09T08:57:35;7.40;;;4.40;;
2021;SDS011;1015;49.756;6.994;2022-07-09T09:00:03;3.70;;;2.80;;
2021;SDS011;1015;49.756;6.994;2022-07-09T09:02:34;3.50;;;3.00;;
2021;SDS011;1015;49.756;6.994;2022-07-09T09:05:09;2.87;;;2.67;;
2021;SDS011;1015;49.756;6.994;2022-07-09T09:07:36;5.83;;;2.93;;
2021;SDS011;1015;49.756;6.994;2022-07-09T09:10:04;4.13;;;3.50;;
2021;SDS011;1015;49.756;6.994;2022-07-09T09:12:31;3.93;;;2.40;;
2021;SDS011;1015;49.756;6.994;2022-07-09T09:14:58;3.20;;;2.33;;
2021;SDS011;1015;49.756;6.994;2022-07-09T09:17:26;3.57;;;3.27;;
2021;SDS011;1015;49.756;6.994;2022-07-09T09:19:53;3.37;;;2.90;;
2021;SDS011;1015;49.756;6.994;2022-07-09T09:22:21;3.10;;;2.60;;
2021;SDS011;1015;49.756;6.994;2022-07-09T09:24:48;3.93;;;2.57;;
2021;SDS011;1015;49.756;6.994;2022-07-09T09:27:16;4.07;;;2.60;;
2021;SDS011;1015;49.756;6.994;2022-07-09T09:29:49;2.97;;;2.63;;
2021;SDS011;1015;49.756;6.994;2022-07-09T09:32:18;4.97;;;3.67;;
2021;SDS011;1015;49.756;6.994;2022-07-09T09:34:48;2.73;;;2.50;;
2021;SDS011;1015;49.756;6.994;2022-07-09T09:37:25;2.90;;;2.70;;
2021;SDS011;1015;49.756;6.994;2022-07-09T09:39:53;2.63;;;2.33;;
2021;SDS011;1015;49.756;6.994;2022-07-09T09:42:21;2.27;;;1.53;;
2021;SDS011;1015;49.756;6.994;2022-07-09T09:44:52;1.47;;;1.37;;
2021;SDS011;1015;49.756;6.994;2022-07-09T09:47:26;1.40;;;1.30;;
2021;SDS011;1015;49.756;6.994;2022-07-09T09:49:54;2.93;;;1.77;;
2021;SDS011;1015;49.756;6.994;2022-07-09T09:52:27;2.00;;;1.90;;
2021;SDS011;1015;49.756;6.994;2022-07-09T09:54:55;3.50;;;2.43;;
2021;SDS011;1015;49.756;6.994;2022-07-09T09:57:24;2.10;;;2.00;;
2021;SDS011;1015;49.756;6.994;2022-07-09T09:59:53;2.70;;;2.50;;
2021;SDS011;1015;49.756;6.994;2022-07-09T10:02:22;5.93;;;2.00;;
2021;SDS011;1015;49.756;6.994;2022-07-09T10:04:51;2.30;;;2.10;;
2021;SDS011;1015;49.756;6.994;2022-07-09T10:07:18;2.57;;;2.37;;
2021;SDS011;1015;49.756;6.994;2022-07-09T10:09:53;2.00;;;1.73;;
2021;SDS011;1015;49.756;6.994;2022-07-09T10:12:25;2.00;;;1.90;;
2021;SDS011;1015;49.756;6.994;2022-07-09T10:14:54;3.30;;;2.00;;
2021;SDS011;1015;49.756;6.994;2022-07-09T10:17:23;2.27;;;2.10;;
2021;SDS011;1015;49.756;6.994;2022-07-09T10:19:51;4.73;;;2.07;;
2021;SDS011;1015;49.756;6.994;2022-07-09T10:22:20;3.33;;;1.60;;
2021;SDS011;1015;49.756;6.994;2022-07-09T10:24:49;2.83;;;1.90;;
2021;SDS011;1015;49.756;6.994;2022-07-09T10:27:19;1.57;;;1.47;;
2021;SDS011;1015;49.756;6.994;2022-07-09T10:29:53;1.90;;;1.80;;
2021;SDS011;1015;49.756;6.994;2022-07-09T10:32:22;1.93;;;1.83;;
2021;SDS011;1015;49.756;6.994;2022-07-09T10:34:58;2.20;;;2.00;;
2021;SDS011;1015;49.756;6.994;2022-07-09T10:37:35;1.80;;;1.70;;
2021;SDS011;1015;49.756;6.994;2022-07-09T10:40:10;2.00;;;1.80;;
2021;SDS011;1015;49.756;6.994;2022-07-09T10:42:40;2.57;;;2.30;;
2021;SDS011;1015;49.756;6.994;2022-07-09T10:45:20;2.63;;;1.83;;
2021;SDS011;1015;49.756;6.994;2022-07-09T10:47:54;2.60;;;2.20;;
2021;SDS011;1015;49.756;6.994;2022-07-09T10:50:22;1.80;;;1.70;;
2021;SDS011;1015;49.756;6.994;2022-07-09T10:52:50;1.60;;;1.50;;
2021;SDS011;1015;49.756;6.994;2022-07-09T10:55:17;1.80;;;1.40;;
2021;SDS011;1015;49.756;6.994;2022-07-09T10:57:46;1.80;;;1.70;;
2021;SDS011;1015;49.756;6.994;2022-07-09T11:00:14;1.57;;;1.47;;
2021;SDS011;1015;49.756;6.994;2022-07-09T11:02:52;1.77;;;1.67;;
2021;SDS011;1015;49.756;6.994;2022-07-09T11:05:23;1.87;;;1.77;;
2021;SDS011;1015;49.756;6.994;2022-07-09T11:07:57;1.77;;;1.60;;
2021;SDS011;1015;49.756;6.994;2022-07-09T11:10:26;1.67;;;1.57;;
2021;SDS011;1015;49.756;6.994;2022-07-09T11:12:55;1.93;;;1.67;;
2021;SDS011;1015;49.756;6.994;2022-07-09T11:15:24;2.80;;;1.90;;
2021;SDS011;1015;49.756;6.994;2022-07-09T11:17:56;1.70;;;1.43;;
2021;SDS011;1015;49.756;6.994;2022-07-09T11:20:24;1.60;;;1.50;;
2021;SDS011;1015;49.756;6.994;2022-07-09T11:22:51;1.60;;;1.43;;
2021;SDS011;1015;49.756;6.994;2022-07-09T11:25:21;1.80;;;1.70;;
2021;SDS011;1015;49.756;6.994;2022-07-09T11:27:51;1.77;;;1.67;;
2021;SDS011;1015;49.756;6.994;2022-07-09T11:30:19;1.67;;;1.57;;
2021;SDS011;1015;49.756;6.994;2022-07-09T11:32:46;1.70;;;1.60;;
2021;SDS011;1015;49.756;6.994;2022-07-09T11:35:23;1.40;;;1.30;;
2021;SDS011;1015;49.756;6.994;2022-07-09T11:37:51;1.53;;;1.43;;
2021;SDS011;1015;49.756;6.994;2022-07-09T11:40:18;3.07;;;1.60;;
2021;SDS011;1015;49.756;6.994;2022-07-09T11:42:46;2.00;;;1.77;;
2021;SDS011;1015;49.756;6.994;2022-07-09T11:45:14;3.87;;;1.70;;
2021;SDS011;1015;49.756;6.994;2022-07-09T11:47:42;1.50;;;1.40;;
2021;SDS011;1015;49.756;6.994;2022-07-09T11:50:11;1.60;;;1.50;;
2021;SDS011;1015;49.756;6.994;2022-07-09T11:52:42;1.40;;;1.30;;
2021;SDS011;1015;49.756;6.994;2022-07-09T11:55:11;1.80;;;1.40;;
2021;SDS011;1015;49.756;6.994;2022-07-09T11:57:50;1.40;;;1.30;;
2021;SDS011;1015;49.756;6.994;2022-07-09T12:00:22;2.20;;;1.50;;
2021;SDS011;1015;49.756;6.994;2022-07-09T12:02:51;1.90;;;1.57;;
2021;SDS011;1015;49.756;6.994;2022-07-09T12:05:25;1.47;;;1.37;;
2021;SDS011;1015;49.756;6.994;2022-07-09T12:07:55;2.70;;;2.00;;
2021;SDS011;1015;49.756;6.994;2022-07-09T12:10:27;1.23;;;1.23;;
2021;SDS011;1015;49.756;6.994;2022-07-09T12:12:57;1.50;;;1.40;;
2021;SDS011;1015;49.756;6.994;2022-07-09T12:15:25;1.87;;;1.60;;
2021;SDS011;1015;49.756;6.994;2022-07-09T12:17:54;1.50;;;1.40;;
2021;SDS011;1015;49.756;6.994;2022-07-09T12:20:22;1.67;;;1.57;;
2021;SDS011;1015;49.756;6.994;2022-07-09T12:22:50;1.67;;;1.43;;
2021;SDS011;1015;49.756;6.994;2022-07-09T12:25:18;1.70;;;1.60;;
2021;SDS011;1015;49.756;6.994;2022-07-09T12:27:45;1.60;;;1.50;;
2021;SDS011;1015;49.756;6.994;2022-07-09T12:30:12;1.60;;;1.50;;
2021;SDS011;1015;49.756;6.994;2022-07-09T12:32:41;1.40;;;1.30;;
2021;SDS011;1015;49.756;6.994;2022-07-09T12:35:10;1.60;;;1.50;;
2021;SDS011;1015;49.756;6.994;2022-07-09T12:37:37;1.50;;;1.40;;
2021;SDS011;1015;49.756;6.994;2022-07-09T12:40:05;1.57;;;1.47;;
2021;SDS011;1015;49.756;6.994;2022-07-09T12:42:34;1.40;;;1.30;;
2021;SDS011;1015;49.756;6.994;2022-07-09T12:45:01;1.47;;;1.37;;
2021;SDS011;1015;49.756;6.994;2022-07-09T12:47:29;1.30;;;1.20;;
2021;SDS011;1015;49.756;6.994;2022-07-09T12:49:56;1.87;;;1.77;;
2021;SDS011;1015;49.756;6.994;2022-07-09T12:52:25;1.50;;;1.40;;
2021;SDS011;1015;49.756;6.994;2022-07-09T12:54:52;1.50;;;1.40;;
2021;SDS011;1015;49.756;6.994;2022-07-09T12:57:19;2.00;;;1.63;;
2021;SDS011;1015;49.756;6.994;2022-07-09T12:59:46;1.40;;;1.30;;
2021;SDS011;1015;49.756;6.994;2022-07-09T13:02:13;1.73;;;1.63;;
2021;SDS011;1015;49.756;6.994;2022-07-09T13:04:40;1.80;;;1.70;;
2021;SDS011;1015;49.756;6.994;2022-07-09T13:07:07;1.67;;;1.57;;
2021;SDS011;1015;49.756;6.994;2022-07-09T13:09:35;1.70;;;1.60;;
2021;SDS011;1015;49.756;6.994;2022-07-09T13:12:03;1.27;;;1.20;;
2021;SDS011;1015;49.756;6.994;2022-07-09T13:14:30;2.17;;;1.37;;
2021;SDS011;1015;49.756;6.994;2022-07-09T13:16:57;1.47;;;1.37;;
2021;SDS011;1015;49.756;6.994;2022-07-09T13:19:25;4.10;;;1.60;;
2021;SDS011;1015;49.756;6.994;2022-07-09T13:21:52;1.30;;;1.20;;
2021;SDS011;1015;49.756;6.994;2022-07-09T13:24:19;1.40;;;1.30;;
2021;SDS011;1015;49.756;6.994;2022-07-09T13:26:47;1.40;;;1.30;;
2021;SDS011;1015;49.756;6.994;2022-07-09T13:29:14;1.60;;;1.50;;
2021;SDS011;1015;49.756;6.994;2022-07-09T13:31:41;1.50;;;1.40;;
2021;SDS011;1015;49.756;6.994;2022-07-09T13:34:08;1.93;;;1.50;;
2021;SDS011;1015;49.756;6.994;2022-07-09T13:36:35;1.70;;;1.60;;
2021;SDS011;1015;49.756;6.994;2022-07-09T13:39:02;1.60;;;1.50;;
2021;SDS011;1015;49.756;6.994;2022-07-09T13:41:29;2.20;;;1.70;;
2021;SDS011;1015;49.756;6.994;2022-07-09T13:43:57;1.50;;;1.40;;
2021;SDS011;1015;49.756;6.994;2022-07-09T13:46:24;1.47;;;1.37;;
2021;SDS011;1015;49.756;6.994;2022-07-09T13:48:51;1.50;;;1.40;;
2021;SDS011;1015;49.756;6.994;2022-07-09T13:51:18;2.10;;;1.50;;
2021;SDS011;1015;49.756;6.994;2022-07-09T13:53:45;1.40;;;1.30;;
2021;SDS011;1015;49.756;6.994;2022-07-09T13:56:11;1.53;;;1.43;;
2021;SDS011;1015;49.756;6.994;2022-07-09T13:58:38;1.50;;;1.40;;
2021;SDS011;1015;49.756;6.994;2022-07-09T14:01:08;1.57;;;1.47;;
2021;SDS011;1015;49.756;6.994;2022-07-09T14:03:35;1.67;;;1.57;;
2021;SDS011;1015;49.756;6.994;2022-07-09T14:06:02;1.60;;;1.50;;
2021;SDS011;1015;49.756;6.994;2022-07-09T14:08:29;1.63;;;1.37;;
2021;SDS011;1015;49.756;6.994;2022-07-09T14:10:56;1.90;;;1.50;;
2021;SDS011;1015;49.756;6.994;2022-07-09T14:13:24;1.80;;;1.70;;
2021;SDS011;1015;49.756;6.994;2022-07-09T14:15:52;2.07;;;1.53;;
2021;SDS011;1015;49.756;6.994;2022-07-09T14:18:22;1.80;;;1.70;;
2021;SDS011;1015;49.756;6.994;2022-07-09T14:20:49;1.47;;;1.37;;
2021;SDS011;1015;49.756;6.994;2022-07-09T14:23:16;1.90;;;1.70;;
2021;SDS011;1015;49.756;6.994;2022-07-09T14:25:43;1.80;;;1.70;;
2021;SDS011;1015;49.756;6.994;2022-07-09T14:28:13;1.83;;;1.73;;
2021;SDS011;1015;49.756;6.994;2022-07-09T14:30:40;1.93;;;1.70;;
2021;SDS011;1015;49.756;6.994;2022-07-09T14:33:07;1.80;;;1.70;;
2021;SDS011;1015;49.756;6.994;2022-07-09T14:35:38;1.50;;;1.40;;
2021;SDS011;1015;49.756;6.994;2022-07-09T14:38:05;1.77;;;1.67;;
2021;SDS011;1015;49.756;6.994;2022-07-09T14:40:32;2.27;;;1.53;;
2021;SDS011;1015;49.756;6.994;2022-07-09T14:42:59;1.70;;;1.60;;
2021;SDS011;1015;49.756;6.994;2022-07-09T14:45:26;2.03;;;1.93;;
2021;SDS011;1015;49.756;6.994;2022-07-09T14:47:53;1.90;;;1.80;;
2021;SDS011;1015;49.756;6.994;2022-07-09T14:50:20;2.70;;;1.77;;
2021;SDS011;1015;49.756;6.994;2022-07-09T14:52:49;2.13;;;2.03;;
2021;SDS011;1015;49.756;6.994;2022-07-09T14:55:16;1.87;;;1.77;;
2021;SDS011;1015;49.756;6.994;2022-07-09T14:57:43;2.37;;;2.17;;
2021;SDS011;1015;49.756;6.994;2022-07-09T15:00:10;2.53;;;2.33;;
2021;SDS011;1015;49.756;6.994;2022-07-09T15:02:37;1.80;;;1.70;;
2021;SDS011;1015;49.756;6.994;2022-07-09T15:05:05;2.00;;;1.90;;
2021;SDS011;1015;49.756;6.994;2022-07-09T15:07:32;1.80;;;1.70;;
2021;SDS011;1015;49.756;6.994;2022-07-09T15:10:02;1.90;;;1.50;;
2021;SDS011;1015;49.756;6.994;2022-07-09T15:12:29;2.00;;;1.90;;
2021;SDS011;1015;49.756;6.994;2022-07-09T15:14:57;1.80;;;1.70;;